createdAt,value
2023-04-17T00:01:32.307Z,12.02
2023-04-17T00:06:33.786Z,10.73
2023-04-17T00:11:35.391Z,11.00
2023-04-17T00:16:36.993Z,9.98
2023-04-17T00:21:38.600Z,9.05
2023-04-17T00:26:40.327Z,12.05
2023-04-17T00:31:42.099Z,10.10
2023-04-17T00:36:43.654Z,8.95
2023-04-17T00:41:45.451Z,9.07
2023-04-17T00:46:46.998Z,11.48
2023-04-17T00:51:49.413Z,9.85
2023-04-17T00:56:52.638Z,8.55
2023-04-17T01:01:54.250Z,11.75
2023-04-17T01:06:56.090Z,11.85
2023-04-17T01:12:19.561Z,8.70
2023-04-17T01:17:22.001Z,9.13
2023-04-17T01:22:23.968Z,9.90
2023-04-17T01:27:29.871Z,11.77
2023-04-17T01:32:31.407Z,9.75
2023-04-17T01:37:33.936Z,9.45
2023-04-17T01:42:35.548Z,11.60
2023-04-17T01:47:37.254Z,14.98
2023-04-17T01:52:39.896Z,9.73
2023-04-17T01:57:42.337Z,10.82
2023-04-17T02:02:43.907Z,9.82
2023-04-17T02:07:45.596Z,11.45
2023-04-17T02:12:47.118Z,12.43
2023-04-17T02:17:48.763Z,8.98
2023-04-17T02:22:50.301Z,10.00
2023-04-17T02:27:51.810Z,10.55
2023-04-17T02:32:54.629Z,10.98
2023-04-17T02:37:56.909Z,9.73
2023-04-17T02:42:58.704Z,10.85
2023-04-17T02:48:01.093Z,9.80
2023-04-17T02:53:02.940Z,9.95
2023-04-17T02:58:04.741Z,16.23
2023-04-17T03:03:07.801Z,10.65
2023-04-17T03:08:09.518Z,17.30
2023-04-17T03:13:19.170Z,11.38
2023-04-17T03:18:21.192Z,12.80
2023-04-17T03:23:22.732Z,13.10
2023-04-17T03:28:26.327Z,10.43
2023-04-17T03:33:28.774Z,11.68
2023-04-17T03:38:33.441Z,13.60
2023-04-17T03:43:35.187Z,11.18
2023-04-17T03:48:36.794Z,11.75
2023-04-17T03:53:38.598Z,12.98
2023-04-17T03:58:43.758Z,12.40
2023-04-17T04:03:48.046Z,13.43
2023-04-17T04:08:49.783Z,14.40
2023-04-17T04:13:52.624Z,12.40
2023-04-17T04:18:54.235Z,10.30
2023-04-17T04:23:56.141Z,11.63
2023-04-17T04:29:00.209Z,12.85
2023-04-17T04:34:13.345Z,11.18
2023-04-17T04:39:20.188Z,12.32
2023-04-17T04:44:21.899Z,14.45
2023-04-17T04:49:25.673Z,11.85
2023-04-17T04:54:27.530Z,10.75
2023-04-17T04:59:32.813Z,12.00
2023-04-17T05:04:53.352Z,10.65
2023-04-17T05:09:55.464Z,11.30
2023-04-17T05:14:56.929Z,10.88
2023-04-17T05:19:58.638Z,12.32
2023-04-17T05:25:00.319Z,13.23
2023-04-17T05:30:01.941Z,13.45
2023-04-17T05:35:05.079Z,13.48
2023-04-17T05:40:07.334Z,12.25
2023-04-17T05:45:13.478Z,12.35
2023-04-17T05:50:15.487Z,18.40
2023-04-17T05:55:17.548Z,12.00
2023-04-17T06:00:22.397Z,14.35
2023-04-17T06:05:29.877Z,13.52
2023-04-17T06:10:33.481Z,13.07
2023-04-17T06:15:36.456Z,12.18
2023-04-17T06:20:40.201Z,15.80
2023-04-17T06:25:42.099Z,15.27
2023-04-17T06:30:43.700Z,19.02
2023-04-17T06:35:45.618Z,16.30
2023-04-17T06:41:07.503Z,14.32
2023-04-17T06:46:10.936Z,18.50
2023-04-17T06:51:12.599Z,17.25
2023-04-17T06:56:14.403Z,17.27
2023-04-17T07:01:18.748Z,18.95
2023-04-17T07:06:21.015Z,17.88
2023-04-17T07:11:22.512Z,17.73
2023-04-17T07:16:24.240Z,18.27
2023-04-17T07:21:27.004Z,17.92
2023-04-17T07:26:28.680Z,20.73
2023-04-17T07:31:30.445Z,19.40
2023-04-17T07:36:32.181Z,19.98
2023-04-17T07:41:33.688Z,21.58
2023-04-17T07:46:35.248Z,17.42
2023-04-17T07:51:38.142Z,16.98
2023-04-17T07:56:39.929Z,20.60
2023-04-17T08:01:41.796Z,19.42
2023-04-17T08:11:56.453Z,16.35
2023-04-17T08:16:59.225Z,18.83
2023-04-17T08:22:03.636Z,14.93
2023-04-17T08:27:06.076Z,17.50
2023-04-17T08:32:14.619Z,16.90
2023-04-17T08:37:17.028Z,22.00
2023-04-17T08:42:19.215Z,17.33
2023-04-17T08:47:20.919Z,12.93
2023-04-17T08:52:22.480Z,17.27
2023-04-17T08:57:24.050Z,14.30
2023-04-17T09:02:27.775Z,17.15
2023-04-17T09:07:30.664Z,12.57
2023-04-17T09:12:32.625Z,12.50
2023-04-17T09:17:35.779Z,10.23
2023-04-17T09:22:42.135Z,14.43
2023-04-17T09:27:45.899Z,11.48
2023-04-17T09:32:47.474Z,10.45
2023-04-17T09:37:55.069Z,12.82
2023-04-17T09:43:00.633Z,12.05
2023-04-17T09:48:06.497Z,9.50
2023-04-17T09:53:09.361Z,12.65
2023-04-17T09:58:11.311Z,11.98
2023-04-17T10:03:15.440Z,12.65
2023-04-17T10:08:17.103Z,9.57
2023-04-17T10:13:21.137Z,10.85
2023-04-17T10:18:24.540Z,11.38
2023-04-17T10:23:36.761Z,12.60
2023-04-17T10:28:49.824Z,9.20
2023-04-17T10:33:54.245Z,10.77
2023-04-17T10:39:13.234Z,8.57
2023-04-17T10:44:15.195Z,9.67
2023-04-17T10:49:17.200Z,9.48
2023-04-17T10:54:19.229Z,10.25
2023-04-17T10:59:22.646Z,9.98
2023-04-17T11:04:28.303Z,8.85
2023-04-17T11:09:30.219Z,9.13
2023-04-17T11:14:32.632Z,10.77
2023-04-17T11:19:34.476Z,9.77
2023-04-17T11:24:36.289Z,8.60
2023-04-17T11:29:37.870Z,8.50
2023-04-17T11:34:39.607Z,9.90
2023-04-17T11:39:42.785Z,10.70
2023-04-17T11:44:45.481Z,8.95
2023-04-17T11:49:47.132Z,7.82
2023-04-17T11:54:57.101Z,8.30
2023-04-17T11:59:58.602Z,8.60
2023-04-17T12:05:13.835Z,8.63
2023-04-17T12:10:15.512Z,9.88
2023-04-17T12:15:17.042Z,10.15
2023-04-17T12:20:18.582Z,8.35
2023-04-17T12:25:20.221Z,7.70
2023-04-17T12:30:22.767Z,10.00
2023-04-17T12:35:25.469Z,6.55
2023-04-17T12:40:27.141Z,7.63
2023-04-17T12:45:29.311Z,5.63
2023-04-17T12:50:42.445Z,9.77
2023-04-17T12:56:02.177Z,13.98
2023-04-17T13:01:04.488Z,7.82
2023-04-17T13:06:10.716Z,9.07
2023-04-17T13:11:12.396Z,7.70
2023-04-17T13:16:14.364Z,10.32
2023-04-17T13:21:16.403Z,8.63
2023-04-17T13:26:18.402Z,9.10
2023-04-17T13:31:20.077Z,9.77
2023-04-17T13:36:21.696Z,8.70
2023-04-17T13:41:23.975Z,9.43
2023-04-17T13:46:25.647Z,9.50
2023-04-17T13:51:27.332Z,10.77
2023-04-17T13:56:29.170Z,8.52
2023-04-17T14:01:31.106Z,8.05
2023-04-17T14:06:34.540Z,10.10
2023-04-17T14:11:36.337Z,12.45
2023-04-17T14:16:38.376Z,9.02
2023-04-17T14:21:40.056Z,10.63
2023-04-17T14:26:42.130Z,7.72
2023-04-17T14:31:43.707Z,9.93
2023-04-17T14:36:45.360Z,8.88
2023-04-17T14:41:48.236Z,9.40
2023-04-17T14:46:50.995Z,8.43
2023-04-17T14:52:02.512Z,10.02
2023-04-17T14:57:05.357Z,9.57
2023-04-17T15:02:08.360Z,9.98
2023-04-17T15:07:10.986Z,10.85
2023-04-17T15:12:13.619Z,7.65
2023-04-17T15:17:28.190Z,10.90
2023-04-17T15:22:29.850Z,9.27
2023-04-17T15:27:31.771Z,9.38
2023-04-17T15:32:33.861Z,7.65
2023-04-17T15:37:38.089Z,5.63
2023-04-17T15:42:40.497Z,9.10
2023-04-17T15:47:42.351Z,8.15
2023-04-17T15:52:43.914Z,6.63
2023-04-17T15:57:45.457Z,4.90
2023-04-17T16:02:47.893Z,4.63
2023-04-17T16:07:50.004Z,4.93
2023-04-17T16:12:51.915Z,6.05
2023-04-17T16:17:53.532Z,7.93
2023-04-17T16:22:56.046Z,6.50
2023-04-17T16:27:57.643Z,6.43
2023-04-17T16:32:59.172Z,9.15
2023-04-17T16:38:01.528Z,7.13
2023-04-17T16:43:03.035Z,10.13
2023-04-17T16:48:05.086Z,7.50
2023-04-17T16:53:06.747Z,8.77
2023-04-17T16:58:08.384Z,9.30
2023-04-17T17:03:10.083Z,8.48
2023-04-17T17:08:13.270Z,6.85
2023-04-17T17:13:14.848Z,13.55
2023-04-17T17:18:16.859Z,6.97
2023-04-17T17:23:18.675Z,11.65
2023-04-17T17:28:20.231Z,10.40
2023-04-17T17:33:21.699Z,8.18
2023-04-17T17:38:24.027Z,5.20
2023-04-17T17:43:26.589Z,11.85
2023-04-17T17:48:28.096Z,5.88
2023-04-17T17:53:29.617Z,7.68
2023-04-17T17:58:31.119Z,6.22
2023-04-17T18:03:33.150Z,6.75
2023-04-17T18:08:35.236Z,12.77
2023-04-17T18:13:36.779Z,11.50
2023-04-17T18:18:38.864Z,6.28
2023-04-17T18:23:40.553Z,7.05
2023-04-17T18:28:42.877Z,5.32
2023-04-17T18:33:44.338Z,7.10
2023-04-17T18:38:46.521Z,5.63
2023-04-17T18:43:48.569Z,5.10
2023-04-17T18:48:50.181Z,3.88
2023-04-17T18:53:51.727Z,8.77
2023-04-17T18:58:53.319Z,5.60
2023-04-17T19:03:54.855Z,9.05
2023-04-17T19:08:59.212Z,4.63
2023-04-17T19:14:00.766Z,3.92
2023-04-17T19:19:02.276Z,5.38
2023-04-17T19:24:03.965Z,10.18
2023-04-17T19:29:05.677Z,6.88
2023-04-17T19:34:08.430Z,6.53
2023-04-17T19:39:10.083Z,4.40
2023-04-17T19:44:11.605Z,9.88
2023-04-17T19:49:13.413Z,7.10
2023-04-17T19:54:15.794Z,14.57
2023-04-17T19:59:17.302Z,7.85
2023-04-17T20:04:18.934Z,5.43
2023-04-17T20:09:23.638Z,5.68
2023-04-17T20:14:25.740Z,6.85
2023-04-17T20:19:27.271Z,5.55
2023-04-17T20:24:29.245Z,5.30
2023-04-17T20:29:33.353Z,5.78
2023-04-17T20:34:35.082Z,6.60
2023-04-17T20:39:36.676Z,8.30
2023-04-17T20:44:38.156Z,4.25
2023-04-17T20:49:40.035Z,7.50
2023-04-17T20:54:41.529Z,6.13
2023-04-17T20:59:43.087Z,7.20
2023-04-17T21:04:45.933Z,5.03
2023-04-17T21:09:48.447Z,7.15
2023-04-17T21:14:50.166Z,6.20
2023-04-17T21:19:51.734Z,8.73
2023-04-17T21:24:53.229Z,3.90
2023-04-17T21:29:54.847Z,4.47
2023-04-17T21:34:56.366Z,6.60
2023-04-17T21:39:57.948Z,4.78
2023-04-17T21:44:59.458Z,7.63
2023-04-17T21:50:01.006Z,6.32
2023-04-17T21:55:05.181Z,7.68
2023-04-17T22:00:11.460Z,4.35
2023-04-17T22:05:13.154Z,7.38
2023-04-17T22:10:14.833Z,6.25
2023-04-17T22:15:16.858Z,5.95
2023-04-17T22:20:19.069Z,4.18
2023-04-17T22:25:20.976Z,4.90
2023-04-17T22:30:22.679Z,5.10
2023-04-17T22:35:24.392Z,6.55
2023-04-17T22:40:26.024Z,6.07
2023-04-17T22:45:27.556Z,3.90
2023-04-17T22:50:30.647Z,6.03
2023-04-17T22:55:32.705Z,5.78
2023-04-17T23:00:34.789Z,4.72
2023-04-17T23:05:36.419Z,8.02
2023-04-17T23:10:37.983Z,7.07
2023-04-17T23:15:39.456Z,6.28
2023-04-17T23:20:41.020Z,5.28
2023-04-17T23:25:42.478Z,10.27
2023-04-17T23:30:44.108Z,4.78
2023-04-17T23:35:45.775Z,5.40
2023-04-17T23:40:47.650Z,5.93
2023-04-17T23:45:49.191Z,11.38
2023-04-17T23:50:50.773Z,6.28
2023-04-17T23:55:52.312Z,6.68
